Time;durP1;ratioP1;P1;durP2;ratioP2;P2;SDS_P1;SDS_P2;PMS_P1;PMS_P2;Temp;Humidity;BMP_temperature;BMP_pressure;BME280_temperature;BME280_humidity;BME280_pressure;Samples;Min_cycle;Max_cycle;Signal;HPM_P1;HPM_P2
2022/09/28 00:01:20;;;;;;;2.03;1.60;;;9.50;99.90;;;;;;5039149;28;20257;-70
2022/09/28 00:03:47;;;;;;;2.30;2.10;;;9.50;99.90;;;;;;5020813;28;20220;-70
2022/09/28 00:06:15;;;;;;;2.27;2.03;;;9.50;99.90;;;;;;5041399;28;20223;-69
2022/09/28 00:08:40;;;;;;;2.50;2.30;;;9.50;99.90;;;;;;5030279;28;20205;-69
2022/09/28 00:11:09;;;;;;;2.27;1.93;;;9.50;99.90;;;;;;5034971;28;20191;-69
2022/09/28 00:13:34;;;;;;;2.70;2.40;;;9.50;99.90;;;;;;5030338;28;20214;-69
2022/09/28 00:16:09;;;;;;;2.10;2.00;;;9.50;99.90;;;;;;5031639;28;20192;-70
2022/09/28 00:18:35;;;;;;;2.33;1.93;;;9.50;99.90;;;;;;5022046;28;20215;-70
2022/09/28 00:21:08;;;;;;;2.30;2.03;;;9.50;99.90;;;;;;5034575;28;20203;-71
2022/09/28 00:24:11;;;;;;;3.03;2.80;;;9.60;99.90;;;;;;5018303;28;20290;-69
2022/09/28 00:26:20;;;;;;;2.00;1.90;;;9.60;99.90;;;;;;5033080;28;20200;-69
2022/09/28 00:28:45;;;;;;;2.60;2.40;;;9.60;99.90;;;;;;5023202;28;20200;-69
2022/09/28 00:31:11;;;;;;;2.60;2.37;;;9.60;99.90;;;;;;5028020;28;20193;-69
2022/09/28 00:33:39;;;;;;;4.20;2.17;;;9.60;99.90;;;;;;5029428;28;20284;-71
2022/09/28 00:36:04;;;;;;;2.20;2.10;;;9.70;99.90;;;;;;5045313;28;20677;-71
2022/09/28 00:38:30;;;;;;;2.97;2.63;;;9.70;99.90;;;;;;5024915;28;20266;-71
2022/09/28 00:40:55;;;;;;;2.97;2.77;;;9.70;99.90;;;;;;5026835;28;20594;-71
2022/09/28 00:43:22;;;;;;;2.80;2.50;;;9.60;99.90;;;;;;5029281;28;20292;-72
2022/09/28 00:46:01;;;;;;;2.57;2.27;;;9.60;99.90;;;;;;5031998;28;20195;-71
2022/09/28 00:48:31;;;;;;;3.30;2.80;;;9.60;99.90;;;;;;5029614;28;20203;-72
2022/09/28 00:50:59;;;;;;;2.97;2.63;;;9.60;99.90;;;;;;5044637;28;20228;-72
2022/09/28 00:53:30;;;;;;;3.50;2.70;;;9.60;99.90;;;;;;5030001;28;20216;-71
2022/09/28 00:56:03;;;;;;;3.53;3.27;;;9.60;99.90;;;;;;5020586;28;20249;-71
2022/09/28 00:58:33;;;;;;;3.30;3.10;;;9.60;99.90;;;;;;5030016;28;20613;-71
2022/09/28 01:00:59;;;;;;;5.03;3.33;;;9.60;99.90;;;;;;5012027;28;20216;-71
2022/09/28 01:03:26;;;;;;;3.43;2.93;;;9.50;99.90;;;;;;5031553;28;20564;-71
2022/09/28 01:05:54;;;;;;;2.13;2.03;;;9.50;99.90;;;;;;5031233;28;20213;-71
2022/09/28 01:08:22;;;;;;;6.17;3.00;;;9.50;99.90;;;;;;5032696;28;20698;-68
2022/09/28 01:10:48;;;;;;;3.03;2.63;;;9.50;99.90;;;;;;5028198;28;20201;-68
2022/09/28 01:13:15;;;;;;;2.90;2.67;;;9.50;99.90;;;;;;5032213;28;20239;-68
2022/09/28 01:16:06;;;;;;;3.53;3.23;;;9.50;99.90;;;;;;5032819;28;20203;-68
2022/09/28 01:18:43;;;;;;;2.90;2.70;;;9.60;99.90;;;;;;5022561;28;20558;-67
2022/09/28 01:21:22;;;;;;;5.03;2.23;;;9.60;99.90;;;;;;5024409;28;20314;-68
2022/09/28 01:24:09;;;;;;;4.80;2.77;;;9.50;99.90;;;;;;5024465;28;20215;-67
2022/09/28 01:26:56;;;;;;;3.13;2.83;;;9.50;99.90;;;;;;5016902;28;20623;-68
2022/09/28 01:29:32;;;;;;;2.87;2.67;;;9.50;99.90;;;;;;5015705;28;20247;-67
2022/09/28 01:32:05;;;;;;;3.27;2.10;;;9.50;99.90;;;;;;5007568;28;20183;-68
2022/09/28 01:34:38;;;;;;;2.47;2.23;;;9.50;99.90;;;;;;5024015;28;20203;-67
2022/09/28 01:37:08;;;;;;;3.40;2.30;;;9.60;99.90;;;;;;5024005;28;20585;-68
2022/09/28 01:39:41;;;;;;;2.30;2.10;;;9.50;99.90;;;;;;5012776;28;20205;-69
2022/09/28 01:42:17;;;;;;;2.47;2.27;;;9.60;99.90;;;;;;5029636;28;20785;-69
2022/09/28 01:44:48;;;;;;;2.10;1.90;;;9.60;99.90;;;;;;5025725;28;20215;-68
2022/09/28 01:47:18;;;;;;;2.00;1.90;;;9.60;99.90;;;;;;5011795;28;20685;-70
2022/09/28 01:49:49;;;;;;;2.40;2.30;;;9.60;99.90;;;;;;5025531;28;20233;-70
2022/09/28 01:52:17;;;;;;;1.97;1.87;;;9.70;99.90;;;;;;5007308;28;20689;-69
2022/09/28 01:54:46;;;;;;;2.27;2.10;;;9.70;99.90;;;;;;5025294;28;20189;-70
2022/09/28 01:57:20;;;;;;;2.83;2.30;;;9.70;99.90;;;;;;5044818;28;20202;-70
2022/09/28 01:59:56;;;;;;;3.07;2.20;;;9.60;99.90;;;;;;5017919;28;20192;-71
2022/09/28 02:02:28;;;;;;;2.40;1.80;;;9.70;99.90;;;;;;5018107;28;20218;-71
2022/09/28 02:05:15;;;;;;;2.20;2.00;;;9.70;99.90;;;;;;5020080;28;20184;-71
2022/09/28 02:08:01;;;;;;;2.93;2.27;;;9.60;99.90;;;;;;5023480;28;20265;-71
2022/09/28 02:10:41;;;;;;;2.20;2.03;;;9.60;99.90;;;;;;5011536;28;20179;-71
2022/09/28 02:13:33;;;;;;;3.07;2.87;;;9.60;99.90;;;;;;5014408;28;20234;-70
2022/09/28 02:16:25;;;;;;;3.03;2.83;;;9.50;99.90;;;;;;5030044;28;20759;-69
2022/09/28 02:18:51;;;;;;;2.80;2.60;;;9.50;99.90;;;;;;5015772;28;20259;-70
2022/09/28 02:21:27;;;;;;;2.97;2.77;;;9.50;99.90;;;;;;5024651;28;20211;-69
2022/09/28 02:24:01;;;;;;;3.43;3.13;;;9.60;99.90;;;;;;5019853;28;20231;-69
2022/09/28 02:26:33;;;;;;;4.70;3.23;;;9.60;99.90;;;;;;5018552;28;20194;-70
2022/09/28 02:28:59;;;;;;;3.30;3.00;;;9.60;99.90;;;;;;5014101;28;20196;-69
2022/09/28 02:31:26;;;;;;;3.50;3.30;;;9.50;99.90;;;;;;5031002;28;20524;-69
2022/09/28 02:33:54;;;;;;;3.50;3.17;;;9.50;99.90;;;;;;5027226;28;20291;-69
2022/09/28 02:36:21;;;;;;;3.33;3.13;;;9.50;99.90;;;;;;5030932;28;20203;-69
2022/09/28 02:38:46;;;;;;;3.50;3.20;;;9.50;99.90;;;;;;5032702;28;20232;-70
2022/09/28 02:41:31;;;;;;;3.10;2.90;;;9.60;99.90;;;;;;5043162;28;20200;-71
2022/09/28 02:44:13;;;;;;;4.57;3.47;;;9.60;99.90;;;;;;5016313;28;20215;-70
2022/09/28 02:47:23;;;;;;;3.73;3.43;;;9.60;99.90;;;;;;5009160;28;20191;-70
2022/09/28 02:49:51;;;;;;;4.13;3.77;;;9.50;99.90;;;;;;5016455;28;20219;-70
2022/09/28 02:52:26;;;;;;;3.93;3.53;;;9.60;99.90;;;;;;5030284;28;20224;-69
2022/09/28 02:55:24;;;;;;;4.10;3.80;;;9.50;99.90;;;;;;5021603;28;20196;-70
2022/09/28 02:58:08;;;;;;;5.03;3.57;;;9.50;99.90;;;;;;5021073;28;20207;-70
2022/09/28 03:00:44;;;;;;;3.77;3.47;;;9.40;99.90;;;;;;5028409;28;20179;-69
2022/09/28 03:03:35;;;;;;;4.43;3.83;;;9.40;99.90;;;;;;5022733;28;20297;-70
2022/09/28 03:06:29;;;;;;;4.43;4.03;;;9.30;99.90;;;;;;5018421;28;20227;-70
2022/09/28 03:09:03;;;;;;;4.23;3.93;;;9.40;99.90;;;;;;5020703;28;20211;-70
2022/09/28 03:11:37;;;;;;;4.10;3.30;;;9.40;99.90;;;;;;5026862;28;20195;-69
2022/09/28 03:14:03;;;;;;;4.67;3.63;;;9.30;99.90;;;;;;5017881;28;20236;-70
2022/09/28 03:16:30;;;;;;;4.27;3.60;;;9.30;99.90;;;;;;5043199;28;20656;-70
2022/09/28 03:18:56;;;;;;;5.03;4.30;;;9.20;99.90;;;;;;5033923;28;20746;-70
2022/09/28 03:21:22;;;;;;;4.57;4.17;;;9.10;99.90;;;;;;5026256;28;20222;-71
2022/09/28 03:23:47;;;;;;;4.67;4.13;;;9.10;99.90;;;;;;5033992;28;20556;-70
2022/09/28 03:26:15;;;;;;;4.30;3.90;;;9.10;99.90;;;;;;5030207;28;20188;-70
2022/09/28 03:28:41;;;;;;;6.40;4.43;;;9.10;99.90;;;;;;5036015;28;20268;-70
2022/09/28 03:31:06;;;;;;;4.57;4.17;;;9.10;99.90;;;;;;5037789;28;20187;-70
2022/09/28 03:33:32;;;;;;;4.40;3.83;;;9.00;99.90;;;;;;5031713;28;20558;-71
2022/09/28 03:35:57;;;;;;;4.60;4.20;;;9.10;99.90;;;;;;5040763;28;20697;-70
2022/09/28 03:38:23;;;;;;;4.63;4.23;;;9.10;99.90;;;;;;5035169;28;20196;-69
2022/09/28 03:40:58;;;;;;;4.47;3.83;;;9.00;99.90;;;;;;5026431;28;20187;-68
2022/09/28 03:43:25;;;;;;;4.27;3.87;;;9.10;99.90;;;;;;5038192;28;20298;-69
2022/09/28 03:45:55;;;;;;;5.17;4.77;;;9.10;99.90;;;;;;5011140;28;20681;-69
2022/09/28 03:48:25;;;;;;;5.40;4.27;;;9.10;99.90;;;;;;5039179;28;20420;-68
2022/09/28 03:50:54;;;;;;;4.27;3.90;;;9.20;99.90;;;;;;5022316;28;20733;-68
2022/09/28 03:53:20;;;;;;;5.17;4.10;;;9.20;99.90;;;;;;5027771;28;20222;-68
2022/09/28 03:55:45;;;;;;;5.40;4.90;;;9.20;99.90;;;;;;5015107;28;20183;-68
2022/09/28 03:58:11;;;;;;;4.17;3.77;;;9.30;99.90;;;;;;5040098;28;20290;-69
2022/09/28 04:00:37;;;;;;;4.23;3.83;;;9.30;99.90;;;;;;5011233;28;20343;-69
2022/09/28 04:03:03;;;;;;;5.43;4.50;;;9.40;99.90;;;;;;5027508;28;20696;-68
2022/09/28 04:05:29;;;;;;;5.60;5.07;;;9.50;99.90;;;;;;5016732;28;20224;-69
2022/09/28 04:07:57;;;;;;;6.00;4.70;;;9.50;99.90;;;;;;5029307;28;20286;-69
2022/09/28 04:10:26;;;;;;;5.43;4.60;;;9.50;99.90;;;;;;5023671;28;20977;-69
2022/09/28 04:12:55;;;;;;;9.27;4.73;;;9.50;99.90;;;;;;5030435;28;20199;-69
2022/09/28 04:15:23;;;;;;;5.90;5.03;;;9.50;99.90;;;;;;5021598;28;20223;-69
2022/09/28 04:17:49;;;;;;;5.33;4.83;;;9.50;99.90;;;;;;5037212;28;20211;-69
2022/09/28 04:20:14;;;;;;;4.40;4.00;;;9.50;99.90;;;;;;5032344;28;20201;-71
2022/09/28 04:22:40;;;;;;;5.57;5.07;;;9.50;99.90;;;;;;5033659;28;20232;-71
2022/09/28 04:25:06;;;;;;;4.67;4.27;;;9.40;99.90;;;;;;5021665;28;20201;-71
2022/09/28 04:30:15;;;;;;;4.57;4.10;;;9.50;99.90;;;;;;5011577;28;20203;-71
2022/09/28 04:32:41;;;;;;;6.37;4.50;;;9.50;99.90;;;;;;5032979;28;20195;-72
2022/09/28 04:35:10;;;;;;;5.23;4.60;;;9.50;99.90;;;;;;5024714;28;20202;-72
2022/09/28 04:37:35;;;;;;;5.77;5.27;;;9.60;99.90;;;;;;5034158;28;20292;-71
2022/09/28 04:40:01;;;;;;;5.30;4.80;;;9.60;99.90;;;;;;5018643;28;20289;-72
2022/09/28 04:42:26;;;;;;;4.90;4.40;;;9.50;99.90;;;;;;5030389;28;20230;-72
2022/09/28 04:44:52;;;;;;;5.30;4.80;;;9.60;99.90;;;;;;5024220;28;20210;-71
2022/09/28 04:47:17;;;;;;;5.40;4.67;;;9.60;99.90;;;;;;5040539;28;20660;-70
2022/09/28 04:49:42;;;;;;;5.23;4.73;;;9.60;99.90;;;;;;5028148;28;20200;-70
2022/09/28 04:52:08;;;;;;;5.07;4.57;;;9.50;99.90;;;;;;5037060;28;20313;-69
2022/09/28 04:54:34;;;;;;;5.13;4.73;;;9.50;99.90;;;;;;5025669;28;20930;-70
2022/09/28 04:57:02;;;;;;;5.63;5.03;;;9.50;99.90;;;;;;5033971;28;20228;-69
2022/09/28 04:59:27;;;;;;;6.97;5.50;;;9.50;99.90;;;;;;5021798;28;20268;-70
2022/09/28 05:01:53;;;;;;;5.50;4.90;;;9.50;99.90;;;;;;5030728;28;20648;-69
2022/09/28 05:04:18;;;;;;;5.80;5.23;;;9.60;99.90;;;;;;5030612;28;20224;-69
2022/09/28 05:06:44;;;;;;;5.73;5.13;;;9.60;99.90;;;;;;5040046;28;20196;-70
2022/09/28 05:09:09;;;;;;;5.40;4.90;;;9.60;99.90;;;;;;5032150;28;20277;-70
2022/09/28 05:11:35;;;;;;;6.20;5.60;;;9.50;99.90;;;;;;5035937;28;20282;-71
2022/09/28 05:14:00;;;;;;;5.17;4.73;;;9.60;99.90;;;;;;5032413;28;20215;-72
2022/09/28 05:16:26;;;;;;;7.27;4.80;;;9.60;99.90;;;;;;5044824;28;20195;-70
2022/09/28 05:18:58;;;;;;;5.60;4.90;;;9.60;99.90;;;;;;5023785;28;20681;-70
2022/09/28 05:21:25;;;;;;;5.93;5.17;;;9.60;99.90;;;;;;5034907;28;20600;-71
2022/09/28 05:23:51;;;;;;;6.13;5.30;;;9.60;99.90;;;;;;5029212;28;20774;-68
2022/09/28 05:26:17;;;;;;;9.33;5.57;;;9.60;99.90;;;;;;5039661;28;20191;-76
2022/09/28 05:28:43;;;;;;;7.43;5.07;;;9.70;99.90;;;;;;5035012;28;20207;-68
2022/09/28 05:31:09;;;;;;;5.93;5.40;;;9.60;99.90;;;;;;5025751;28;20268;-64
2022/09/28 05:33:35;;;;;;;6.70;5.70;;;9.70;99.90;;;;;;5024476;28;20233;-64
2022/09/28 05:36:00;;;;;;;5.87;5.37;;;9.90;99.90;;;;;;5012521;28;20189;-64
2022/09/28 05:38:27;;;;;;;6.73;5.60;;;10.00;99.90;;;;;;5033858;28;20696;-63
2022/09/28 05:40:52;;;;;;;7.13;5.50;;;10.00;99.90;;;;;;5025013;28;20202;-64
2022/09/28 05:43:18;;;;;;;5.97;5.37;;;10.00;99.90;;;;;;5039620;28;20260;-65
2022/09/28 05:45:43;;;;;;;7.07;5.60;;;10.10;99.90;;;;;;5012889;28;20552;-65
2022/09/28 05:48:09;;;;;;;5.63;5.10;;;10.10;99.90;;;;;;5025334;28;20195;-66
2022/09/28 05:50:35;;;;;;;6.40;5.60;;;10.00;99.90;;;;;;5017896;28;20872;-65
2022/09/28 05:53:02;;;;;;;7.43;5.50;;;10.00;99.90;;;;;;5024741;28;20200;-65
2022/09/28 05:55:35;;;;;;;5.93;5.33;;;10.10;99.90;;;;;;5012115;28;20192;-64
2022/09/28 05:58:03;;;;;;;11.40;6.47;;;10.10;99.90;;;;;;5023543;28;20211;-64
2022/09/28 06:00:31;;;;;;;8.47;5.87;;;10.10;99.90;;;;;;5022682;28;20684;-64
2022/09/28 06:03:03;;;;;;;7.00;5.53;;;10.10;99.90;;;;;;5037496;28;20295;-64
2022/09/28 06:05:31;;;;;;;5.97;5.13;;;10.10;99.90;;;;;;5023265;28;20222;-64
2022/09/28 06:08:00;;;;;;;7.30;5.50;;;10.10;99.90;;;;;;5025927;28;20191;-66
2022/09/28 06:10:27;;;;;;;6.77;5.90;;;10.10;99.90;;;;;;5019504;28;20226;-65
2022/09/28 06:12:56;;;;;;;6.00;5.20;;;10.10;99.90;;;;;;5034114;28;20191;-66
2022/09/28 06:15:23;;;;;;;7.67;5.60;;;10.10;99.90;;;;;;5023536;28;20208;-66
2022/09/28 06:18:01;;;;;;;5.87;4.93;;;10.20;99.90;;;;;;5036437;28;20655;-66
2022/09/28 06:20:29;;;;;;;8.23;5.33;;;10.30;99.90;;;;;;5015784;28;20204;-65
2022/09/28 06:22:54;;;;;;;6.27;5.67;;;10.30;99.90;;;;;;5042783;28;20188;-65
2022/09/28 06:25:21;;;;;;;6.40;5.67;;;10.40;99.90;;;;;;5024962;28;20556;-65
2022/09/28 06:27:58;;;;;;;5.87;5.13;;;10.40;99.90;;;;;;5033265;28;20200;-66
2022/09/28 06:30:25;;;;;;;9.57;6.13;;;10.30;99.90;;;;;;5016987;28;20622;-67
2022/09/28 06:32:56;;;;;;;5.20;4.70;;;10.40;99.90;;;;;;5042273;28;20267;-66
2022/09/28 06:35:24;;;;;;;6.93;6.13;;;10.40;99.90;;;;;;5025285;28;20309;-66
2022/09/28 06:37:50;;;;;;;6.73;6.03;;;10.30;99.90;;;;;;5038936;28;20298;-67
2022/09/28 06:40:15;;;;;;;7.53;5.70;;;10.30;99.90;;;;;;5023974;28;20200;-65
2022/09/28 06:42:41;;;;;;;5.60;5.00;;;10.20;99.90;;;;;;5038848;28;20252;-69
2022/09/28 06:45:07;;;;;;;6.10;5.53;;;10.20;99.90;;;;;;5026595;28;20246;-65
2022/09/28 06:47:32;;;;;;;8.87;6.23;;;10.30;99.90;;;;;;5039856;28;20192;-67
2022/09/28 06:49:58;;;;;;;8.20;6.13;;;10.20;99.90;;;;;;5031505;28;20232;-64
2022/09/28 06:52:24;;;;;;;8.93;6.43;;;10.20;99.90;;;;;;5029031;28;20237;-66
2022/09/28 06:54:50;;;;;;;6.80;5.90;;;10.20;99.90;;;;;;5032184;28;20212;-64
2022/09/28 06:57:16;;;;;;;9.23;6.67;;;10.20;99.90;;;;;;5034428;28;20210;-67
2022/09/28 06:59:42;;;;;;;7.13;6.43;;;10.20;99.90;;;;;;5033370;28;20580;-67
2022/09/28 07:02:13;;;;;;;11.20;6.93;;;10.30;99.90;;;;;;5043423;28;20203;-65
2022/09/28 07:04:42;;;;;;;8.13;6.97;;;10.40;99.90;;;;;;5034463;28;20278;-64
2022/09/28 07:07:10;;;;;;;7.57;6.00;;;10.40;99.90;;;;;;5031679;28;20728;-64
2022/09/28 07:09:36;;;;;;;7.70;6.90;;;10.40;99.90;;;;;;5034191;28;20201;-64
2022/09/28 07:12:03;;;;;;;7.40;6.67;;;10.30;99.90;;;;;;5047301;28;20645;-64
2022/09/28 07:14:31;;;;;;;7.80;6.97;;;10.30;99.90;;;;;;5026665;28;20660;-64
2022/09/28 07:16:57;;;;;;;8.27;7.23;;;10.40;99.90;;;;;;5041014;28;20192;-64
2022/09/28 07:19:22;;;;;;;8.03;7.23;;;10.40;99.90;;;;;;5035193;28;20209;-64
2022/09/28 07:21:50;;;;;;;11.93;7.23;;;10.50;99.90;;;;;;5033607;28;20344;-67
2022/09/28 07:24:15;;;;;;;11.03;7.60;;;10.70;99.90;;;;;;5028759;28;20218;-64
2022/09/28 07:26:44;;;;;;;8.97;7.80;;;10.60;99.90;;;;;;5034373;28;20239;-64
2022/09/28 07:29:10;;;;;;;8.23;7.20;;;10.70;99.90;;;;;;5038268;28;20935;-64
2022/09/28 07:31:36;;;;;;;8.43;7.63;;;10.70;99.90;;;;;;5012393;28;20617;-64
2022/09/28 07:34:01;;;;;;;8.40;7.37;;;10.80;99.90;;;;;;5024442;28;20221;-65
2022/09/28 07:36:30;;;;;;;10.23;7.73;;;10.90;99.90;;;;;;5025256;28;20196;-65
2022/09/28 07:38:55;;;;;;;8.93;7.83;;;10.90;99.90;;;;;;5038651;28;20209;-66
2022/09/28 07:41:31;;;;;;;8.63;7.77;;;11.00;99.90;;;;;;5027379;28;20250;-67
2022/09/28 07:44:04;;;;;;;8.03;7.23;;;11.10;99.90;;;;;;5012174;28;20211;-68
2022/09/28 07:46:33;;;;;;;8.20;7.30;;;11.10;99.90;;;;;;5027375;28;20182;-68
2022/09/28 07:48:59;;;;;;;8.60;7.73;;;11.10;99.90;;;;;;5025930;28;20195;-65
2022/09/28 07:51:24;;;;;;;10.27;7.30;;;11.20;99.90;;;;;;5035419;28;20307;-67
2022/09/28 07:53:52;;;;;;;8.47;7.17;;;11.30;99.90;;;;;;5025585;28;20208;-66
2022/09/28 07:56:19;;;;;;;10.43;8.70;;;11.50;99.90;;;;;;5018144;28;20247;-64
2022/09/28 07:58:46;;;;;;;8.63;6.67;;;11.60;99.90;;;;;;5031498;28;20295;-65
2022/09/28 08:01:15;;;;;;;8.83;7.93;;;11.70;99.90;;;;;;5016071;28;20191;-93
2022/09/28 08:03:46;;;;;;;7.83;7.03;;;11.80;99.90;;;;;;5030637;28;20270;-61
2022/09/28 08:06:13;;;;;;;9.97;8.03;;;11.90;99.90;;;;;;5017002;28;20757;-60
2022/09/28 08:08:43;;;;;;;7.90;7.10;;;12.10;99.90;;;;;;5018842;28;20222;-61
2022/09/28 08:11:14;;;;;;;10.80;7.37;;;12.10;99.90;;;;;;5020793;28;20177;-61
2022/09/28 08:13:40;;;;;;;11.03;8.50;;;12.00;99.90;;;;;;5022349;28;20664;-63
2022/09/28 08:16:07;;;;;;;9.60;7.00;;;12.10;99.90;;;;;;5016738;28;20189;-62
2022/09/28 08:18:34;;;;;;;8.87;7.43;;;12.20;99.90;;;;;;5016173;28;20194;-63
2022/09/28 08:23:48;;;;;;;9.20;7.73;;;12.30;99.90;;;;;;5014364;28;20252;-63
2022/09/28 08:26:15;;;;;;;7.33;6.63;;;12.30;99.90;;;;;;5017689;28;20208;-63
2022/09/28 08:28:42;;;;;;;7.83;7.13;;;12.30;99.90;;;;;;5032058;28;20207;-63
2022/09/28 08:31:07;;;;;;;9.80;7.73;;;12.30;99.90;;;;;;5013986;28;20240;-63
2022/09/28 08:33:33;;;;;;;9.73;6.60;;;12.30;99.90;;;;;;5025555;28;20212;-65
2022/09/28 08:36:00;;;;;;;6.67;6.07;;;12.30;99.90;;;;;;5026584;28;20191;-61
2022/09/28 08:38:28;;;;;;;6.57;5.83;;;12.30;99.90;;;;;;5043100;28;20186;-62
2022/09/28 08:41:04;;;;;;;7.70;6.73;;;12.30;99.90;;;;;;5024112;28;20240;-59
2022/09/28 08:43:56;;;;;;;7.20;6.43;;;12.30;99.90;;;;;;5025282;28;20217;-59
2022/09/28 08:46:25;;;;;;;7.87;7.07;;;12.40;99.90;;;;;;5019511;28;20976;-59
2022/09/28 08:48:57;;;;;;;7.67;6.97;;;12.40;99.90;;;;;;5035995;28;20603;-59
2022/09/28 08:51:48;;;;;;;7.60;6.90;;;12.30;99.90;;;;;;5037188;28;20236;-62
2022/09/28 08:54:24;;;;;;;7.27;6.67;;;12.20;99.90;;;;;;5009010;28;20200;-63
2022/09/28 08:56:57;;;;;;;9.00;6.90;;;12.40;99.90;;;;;;5019546;28;20266;-59
2022/09/28 08:59:41;;;;;;;10.40;6.93;;;12.60;99.90;;;;;;5021916;28;20364;-59
2022/09/28 09:02:15;;;;;;;7.53;6.53;;;12.70;99.90;;;;;;5005937;28;20174;-60
2022/09/28 09:04:41;;;;;;;7.07;6.20;;;12.70;99.90;;;;;;5020108;28;20221;-59
2022/09/28 09:07:19;;;;;;;8.63;6.67;;;12.80;99.90;;;;;;5040596;28;20192;-62
2022/09/28 09:10:07;;;;;;;10.10;7.67;;;12.80;99.90;;;;;;5025276;28;20279;-59
2022/09/28 09:12:47;;;;;;;6.17;5.70;;;12.90;99.90;;;;;;5013595;28;20260;-61
2022/09/28 09:15:38;;;;;;;6.23;5.73;;;12.90;99.90;;;;;;5018543;28;20226;-60
2022/09/28 09:18:40;;;;;;;6.27;5.67;;;12.90;99.90;;;;;;5014421;28;20673;-60
2022/09/28 09:21:35;;;;;;;5.60;5.10;;;13.00;99.90;;;;;;5013156;28;20866;-61
2022/09/28 09:24:20;;;;;;;5.10;4.70;;;13.20;99.90;;;;;;5014526;28;20300;-61
2022/09/28 09:26:52;;;;;;;5.60;4.93;;;13.20;99.90;;;;;;5018850;28;20289;-61
2022/09/28 09:29:43;;;;;;;5.43;4.90;;;13.20;99.90;;;;;;5013351;28;20201;-61
2022/09/28 09:32:36;;;;;;;6.23;5.23;;;13.20;99.90;;;;;;5016736;28;20264;-61
2022/09/28 09:35:04;;;;;;;5.83;4.97;;;13.40;99.90;;;;;;5016497;28;20206;-61
2022/09/28 09:37:55;;;;;;;4.97;4.10;;;13.50;99.90;;;;;;5020432;28;20268;-64
2022/09/28 09:40:26;;;;;;;4.03;3.70;;;13.60;99.90;;;;;;5022722;28;20584;-60
2022/09/28 09:43:23;;;;;;;4.10;3.77;;;13.70;99.90;;;;;;5026584;28;20213;-60
2022/09/28 09:46:17;;;;;;;4.07;3.73;;;13.70;99.90;;;;;;5021364;28;20229;-60
2022/09/28 09:48:51;;;;;;;6.17;4.17;;;13.80;99.90;;;;;;5010426;28;20192;-60
2022/09/28 09:51:39;;;;;;;4.40;3.93;;;13.60;99.90;;;;;;5025757;28;20229;-60
2022/09/28 09:54:27;;;;;;;3.50;3.20;;;13.50;99.90;;;;;;5019176;28;20287;-60
2022/09/28 09:57:04;;;;;;;7.40;3.27;;;13.60;99.90;;;;;;5015261;28;20226;-64
2022/09/28 09:59:33;;;;;;;4.03;3.77;;;13.80;99.90;;;;;;5018286;28;20507;-73
2022/09/28 10:02:13;;;;;;;3.17;2.87;;;13.80;99.90;;;;;;5018221;28;20194;-62
2022/09/28 10:04:45;;;;;;;3.03;2.50;;;13.80;99.90;;;;;;5018724;28;20251;-59
2022/09/28 10:07:19;;;;;;;3.30;3.00;;;13.70;99.90;;;;;;5021354;28;20178;-62
2022/09/28 10:09:47;;;;;;;4.87;2.67;;;13.90;99.90;;;;;;5010739;28;20195;-61
2022/09/28 10:12:17;;;;;;;1.83;1.73;;;13.90;99.90;;;;;;5012614;28;20192;-64
2022/09/28 10:14:43;;;;;;;4.03;2.47;;;13.90;99.90;;;;;;5023742;28;20212;-86
2022/09/28 10:17:14;;;;;;;2.87;1.77;;;13.80;99.90;;;;;;5017289;28;20559;-64
2022/09/28 10:19:41;;;;;;;3.40;2.10;;;13.90;99.90;;;;;;5017803;28;20237;-76
2022/09/28 10:22:12;;;;;;;2.00;1.67;;;14.00;99.90;;;;;;5029191;28;20364;-71
2022/09/28 10:24:45;;;;;;;2.27;1.33;;;14.20;99.90;;;;;;5009647;28;20308;-68
2022/09/28 10:27:14;;;;;;;3.60;2.10;;;14.10;99.90;;;;;;5013048;28;20196;-68
2022/09/28 10:29:55;;;;;;;1.70;1.60;;;14.10;99.90;;;;;;5035012;28;20278;-72
2022/09/28 10:32:24;;;;;;;3.40;1.00;;;14.20;99.90;;;;;;5019786;28;20184;-66
2022/09/28 10:34:51;;;;;;;3.47;1.73;;;14.10;99.90;;;;;;5016876;28;20294;-70
2022/09/28 10:37:17;;;;;;;2.97;1.70;;;13.80;99.90;;;;;;5012891;28;20172;-65
2022/09/28 10:39:49;;;;;;;5.50;1.77;;;13.60;99.90;;;;;;5016541;28;20210;-66
2022/09/28 10:42:21;;;;;;;2.23;1.70;;;13.60;99.90;;;;;;5017166;28;20191;-67
2022/09/28 10:44:54;;;;;;;2.50;1.47;;;13.50;99.90;;;;;;5033559;28;20225;-68
2022/09/28 10:47:22;;;;;;;1.93;1.73;;;13.40;99.90;;;;;;5023542;28;20309;-68
2022/09/28 10:49:50;;;;;;;2.00;1.77;;;13.40;99.90;;;;;;5032580;28;20573;-66
2022/09/28 10:52:37;;;;;;;2.60;1.40;;;13.20;99.90;;;;;;5030980;28;20267;-76
2022/09/28 10:55:27;;;;;;;1.93;1.33;;;13.00;99.90;;;;;;5027117;28;21017;-65
2022/09/28 10:57:53;;;;;;;2.47;1.37;;;13.00;99.90;;;;;;5023192;28;20200;-66
2022/09/28 11:00:36;;;;;;;3.70;1.40;;;13.00;99.90;;;;;;5028347;28;20599;-65
2022/09/28 11:03:02;;;;;;;2.50;1.40;;;13.00;99.90;;;;;;5023369;28;20232;-65
2022/09/28 11:05:28;;;;;;;1.30;1.20;;;13.00;99.90;;;;;;5021062;28;20211;-76
2022/09/28 11:08:05;;;;;;;2.40;1.60;;;13.00;99.90;;;;;;5037222;28;20591;-75
2022/09/28 11:10:32;;;;;;;2.77;1.60;;;13.00;99.90;;;;;;5015979;28;20203;-65
2022/09/28 11:12:58;;;;;;;3.63;1.70;;;12.90;99.90;;;;;;5028728;28;20290;-66
2022/09/28 11:15:31;;;;;;;2.50;1.93;;;12.80;99.90;;;;;;5033147;28;20210;-67
2022/09/28 11:18:23;;;;;;;1.50;1.40;;;12.80;99.90;;;;;;5027985;28;20257;-66
2022/09/28 11:20:49;;;;;;;1.80;1.70;;;12.70;99.90;;;;;;5026479;28;20320;-67
2022/09/28 11:23:24;;;;;;;2.53;1.80;;;12.70;99.90;;;;;;5031846;28;20725;-66
2022/09/28 11:25:59;;;;;;;1.80;1.70;;;12.70;99.90;;;;;;5021082;28;20220;-65
2022/09/28 11:28:31;;;;;;;3.17;2.13;;;12.80;99.90;;;;;;5039732;28;20218;-66
2022/09/28 11:30:58;;;;;;;3.10;2.17;;;12.80;99.90;;;;;;5019710;28;20272;-65
2022/09/28 11:33:38;;;;;;;2.03;1.83;;;12.80;99.90;;;;;;5035788;28;20295;-65
2022/09/28 11:36:12;;;;;;;2.50;2.30;;;12.80;99.90;;;;;;5020918;28;20477;-66
2022/09/28 11:39:03;;;;;;;2.97;1.33;;;12.90;99.90;;;;;;5028060;28;20203;-66
2022/09/28 11:41:52;;;;;;;1.93;1.77;;;13.00;99.90;;;;;;5025274;28;20662;-66
2022/09/28 11:44:35;;;;;;;1.80;1.70;;;13.10;99.90;;;;;;5010783;28;20300;-65
2022/09/28 11:47:09;;;;;;;3.17;1.93;;;13.20;99.90;;;;;;5027723;28;20944;-65
2022/09/28 11:49:47;;;;;;;3.00;1.97;;;13.30;99.90;;;;;;5020904;28;20209;-66
2022/09/28 11:52:35;;;;;;;1.70;1.60;;;13.40;99.90;;;;;;5034554;28;20241;-66
2022/09/28 11:55:08;;;;;;;2.47;2.03;;;13.40;99.90;;;;;;5020610;28;20268;-66
2022/09/28 11:57:37;;;;;;;1.90;1.60;;;13.30;99.90;;;;;;5027139;28;20193;-66
2022/09/28 12:00:14;;;;;;;1.70;1.57;;;13.20;99.90;;;;;;5032071;28;20228;-66
2022/09/28 12:02:59;;;;;;;1.47;1.37;;;13.00;99.90;;;;;;5030577;28;20273;-66
2022/09/28 12:05:33;;;;;;;2.77;1.37;;;12.70;99.90;;;;;;5015199;28;20691;-66
2022/09/28 12:08:10;;;;;;;1.60;1.50;;;12.70;99.90;;;;;;5026368;28;20182;-66
2022/09/28 12:10:54;;;;;;;2.30;1.60;;;12.70;99.90;;;;;;5016987;28;20197;-65
2022/09/28 12:13:27;;;;;;;1.40;0.90;;;12.70;99.90;;;;;;5025008;28;20516;-65
2022/09/28 12:16:16;;;;;;;1.07;1.07;;;12.70;99.90;;;;;;5029871;28;20247;-66
2022/09/28 12:19:03;;;;;;;1.17;1.00;;;12.60;99.90;;;;;;5016465;28;20250;-65
2022/09/28 12:21:41;;;;;;;1.33;1.23;;;12.40;99.90;;;;;;5022493;28;20192;-65
2022/09/28 12:24:20;;;;;;;0.93;0.93;;;12.50;99.90;;;;;;5023609;28;20444;-65
2022/09/28 12:27:04;;;;;;;0.77;0.77;;;12.50;99.90;;;;;;5019896;28;20271;-65
2022/09/28 12:29:55;;;;;;;1.03;0.90;;;12.70;99.90;;;;;;5025270;28;20194;-66
2022/09/28 12:32:43;;;;;;;0.60;0.60;;;12.80;99.90;;;;;;5036670;28;20745;-66
2022/09/28 12:35:18;;;;;;;0.80;0.80;;;13.00;99.90;;;;;;5036967;28;20217;-66
2022/09/28 12:38:07;;;;;;;0.40;0.30;;;13.10;99.90;;;;;;5010081;28;20226;-66
2022/09/28 12:40:44;;;;;;;0.83;0.50;;;13.20;99.90;;;;;;5015809;28;20201;-66
2022/09/28 12:43:35;;;;;;;0.70;0.70;;;13.10;99.90;;;;;;5022851;28;20329;-66
2022/09/28 12:46:13;;;;;;;0.47;0.47;;;13.20;99.90;;;;;;5020038;28;20206;-66
2022/09/28 12:48:47;;;;;;;2.67;0.87;;;13.10;99.90;;;;;;5022526;28;20276;-66
2022/09/28 12:51:41;;;;;;;0.90;0.40;;;13.10;99.90;;;;;;5025897;28;20225;-66
2022/09/28 12:54:24;;;;;;;1.00;0.70;;;12.90;99.90;;;;;;5026044;28;20193;-66
2022/09/28 12:56:52;;;;;;;0.50;0.50;;;12.80;99.90;;;;;;5024093;28;20604;-66
2022/09/28 12:59:24;;;;;;;1.13;0.80;;;12.90;99.90;;;;;;5036042;28;20691;-66
2022/09/28 13:02:20;;;;;;;0.30;0.30;;;13.00;99.90;;;;;;5014235;28;20293;-66
2022/09/28 13:05:16;;;;;;;0.47;0.47;;;12.90;99.90;;;;;;5021300;28;20247;-66
2022/09/28 13:08:10;;;;;;;1.70;0.80;;;12.90;99.90;;;;;;5013298;28;20188;-66
2022/09/28 13:10:46;;;;;;;0.70;0.70;;;12.90;99.90;;;;;;5020672;28;20467;-67
2022/09/28 13:13:35;;;;;;;0.90;0.90;;;13.00;99.90;;;;;;5037666;28;20240;-67
2022/09/28 13:16:31;;;;;;;1.30;0.77;;;12.90;99.90;;;;;;5008940;28;20220;-67
2022/09/28 13:19:18;;;;;;;0.77;0.70;;;12.90;99.90;;;;;;5016940;28;20207;-67
2022/09/28 13:21:56;;;;;;;0.60;0.60;;;13.00;99.90;;;;;;5019432;28;20230;-67
2022/09/28 13:24:27;;;;;;;2.73;0.67;;;13.10;99.90;;;;;;5019254;28;20743;-66